createdAt,value
2019-03-31T00:00:32.089Z,35.75
2019-03-31T00:03:05.829Z,37.00
2019-03-31T00:05:39.621Z,36.00
2019-03-31T00:08:13.342Z,35.25
2019-03-31T00:10:47.072Z,35.25
2019-03-31T00:13:20.801Z,35.80
2019-03-31T00:15:54.525Z,36.00
2019-03-31T00:18:28.226Z,36.50
2019-03-31T00:21:01.941Z,33.25
2019-03-31T00:23:35.664Z,37.20
2019-03-31T00:26:09.508Z,36.00
2019-03-31T00:28:43.311Z,35.00
2019-03-31T00:31:22.358Z,36.00
2019-03-31T00:33:52.462Z,36.00
2019-03-31T00:36:29.272Z,36.00
2019-03-31T00:39:04.628Z,36.75
2019-03-31T00:41:38.364Z,37.00
2019-03-31T00:44:12.094Z,38.25
2019-03-31T00:46:45.879Z,36.00
2019-03-31T00:49:19.592Z,36.50
2019-03-31T00:51:53.352Z,33.25
2019-03-31T00:54:27.945Z,37.25
2019-03-31T00:57:01.790Z,36.00
2019-03-31T00:59:35.550Z,36.00
2019-03-31T01:02:09.268Z,36.25
2019-03-31T01:04:43.253Z,36.00
2019-03-31T01:07:17.044Z,37.67
2019-03-31T01:09:50.757Z,36.00
2019-03-31T01:12:24.682Z,36.00
2019-03-31T01:14:58.419Z,35.00
2019-03-31T01:17:36.732Z,36.00
2019-03-31T01:20:10.490Z,36.50
2019-03-31T01:22:44.215Z,36.00
2019-03-31T01:25:17.949Z,36.25
2019-03-31T01:27:51.851Z,35.75
2019-03-31T01:30:25.554Z,36.00
2019-03-31T01:32:59.275Z,36.00
2019-03-31T01:35:33.034Z,37.20
2019-03-31T01:38:06.775Z,36.00
2019-03-31T01:40:40.475Z,36.75
2019-03-31T01:43:14.192Z,36.20
2019-03-31T01:45:48.015Z,37.50
2019-03-31T01:48:21.845Z,38.00
2019-03-31T01:50:55.648Z,36.25
2019-03-31T01:53:29.367Z,36.25
2019-03-31T01:56:03.195Z,36.40
2019-03-31T01:58:36.957Z,35.25
2019-03-31T02:01:10.739Z,35.00
2019-03-31T02:03:44.511Z,37.00
2019-03-31T02:06:18.223Z,35.20
2019-03-31T02:08:54.433Z,36.75
2019-03-31T02:11:28.307Z,35.75
2019-03-31T02:14:02.058Z,34.50
2019-03-31T02:16:35.807Z,33.75
2019-03-31T02:19:09.655Z,32.00
2019-03-31T02:21:43.461Z,33.00
2019-03-31T02:24:21.357Z,31.80
2019-03-31T02:26:55.065Z,31.50
2019-03-31T02:29:29.436Z,31.25
2019-03-31T02:32:03.191Z,31.00
2019-03-31T02:34:36.895Z,29.00
2019-03-31T02:37:11.045Z,30.25
2019-03-31T02:39:44.781Z,29.25
2019-03-31T02:42:20.256Z,29.00
2019-03-31T02:44:53.994Z,29.25
2019-03-31T02:47:27.738Z,29.50
2019-03-31T02:50:01.477Z,28.25
2019-03-31T02:52:35.253Z,26.20
2019-03-31T02:55:08.961Z,28.25
2019-03-31T02:57:42.681Z,26.00
2019-03-31T03:00:16.396Z,25.50
2019-03-31T03:02:50.104Z,28.25
2019-03-31T03:05:23.806Z,26.00
2019-03-31T03:07:57.548Z,23.60
2019-03-31T03:10:31.259Z,25.00
2019-03-31T03:13:05.460Z,23.50
2019-03-31T03:15:45.042Z,25.00
2019-03-31T03:18:18.748Z,22.25
2019-03-31T03:20:52.473Z,22.50
2019-03-31T03:23:26.166Z,23.75
2019-03-31T03:25:59.967Z,21.50
2019-03-31T03:28:33.745Z,22.20
2019-03-31T03:31:14.488Z,20.75
2019-03-31T03:33:42.952Z,20.00
2019-03-31T03:36:16.674Z,20.60
2019-03-31T03:38:50.417Z,19.75
2019-03-31T03:41:24.104Z,20.25
2019-03-31T03:44:02.147Z,15.75
2019-03-31T03:46:33.366Z,19.00
2019-03-31T03:49:07.189Z,18.00
2019-03-31T03:51:40.895Z,18.50
2019-03-31T03:54:14.613Z,18.40
2019-03-31T03:56:48.350Z,18.00
2019-03-31T03:59:22.054Z,19.50
2019-03-31T04:01:55.789Z,19.60
2019-03-31T04:04:29.501Z,16.75
2019-03-31T04:07:03.202Z,15.75
2019-03-31T04:09:36.925Z,15.25
2019-03-31T04:12:10.695Z,17.75
2019-03-31T04:14:44.416Z,17.25
2019-03-31T04:17:18.134Z,17.75
2019-03-31T04:19:51.858Z,19.00
2019-03-31T04:22:25.584Z,17.25
2019-03-31T04:24:59.325Z,19.75
2019-03-31T04:27:33.025Z,17.25
2019-03-31T04:30:06.837Z,17.80
2019-03-31T04:32:40.616Z,18.00
2019-03-31T04:35:14.346Z,15.25
2019-03-31T04:37:48.069Z,16.50
2019-03-31T04:40:21.814Z,15.80
2019-03-31T04:42:55.595Z,18.00
2019-03-31T04:45:29.310Z,16.25
2019-03-31T04:48:03.029Z,15.75
2019-03-31T04:50:36.763Z,18.80
2019-03-31T04:53:10.468Z,18.25
2019-03-31T04:55:44.177Z,19.00
2019-03-31T04:58:17.892Z,15.50
2019-03-31T05:00:51.602Z,17.00
2019-03-31T05:03:25.527Z,19.25
2019-03-31T05:05:59.229Z,17.00
2019-03-31T05:08:32.940Z,19.20
2019-03-31T05:11:06.681Z,17.00
2019-03-31T05:13:40.385Z,17.25
2019-03-31T05:16:14.087Z,15.00
2019-03-31T05:18:47.919Z,14.80
2019-03-31T05:21:21.632Z,17.00
2019-03-31T05:23:55.353Z,17.25
2019-03-31T05:26:29.064Z,14.40
2019-03-31T05:29:02.787Z,16.00
2019-03-31T05:31:36.521Z,17.50
2019-03-31T05:34:18.828Z,18.00
2019-03-31T05:36:45.658Z,18.75
2019-03-31T05:39:19.357Z,17.75
2019-03-31T05:41:53.106Z,18.25
2019-03-31T05:44:26.839Z,18.50
2019-03-31T05:47:00.563Z,18.50
2019-03-31T05:49:34.289Z,20.75
2019-03-31T05:52:08.035Z,19.00
2019-03-31T05:54:41.746Z,18.50
2019-03-31T05:57:15.448Z,18.50
2019-03-31T05:59:49.166Z,19.50
2019-03-31T06:02:22.924Z,18.50
2019-03-31T06:04:56.633Z,21.25
2019-03-31T06:07:30.330Z,19.00
2019-03-31T06:10:05.589Z,17.50
2019-03-31T06:12:39.291Z,17.25
2019-03-31T06:15:13.023Z,15.25
2019-03-31T06:17:46.729Z,15.00
2019-03-31T06:20:20.439Z,18.75
2019-03-31T06:22:54.184Z,15.00
2019-03-31T06:25:27.884Z,13.00
2019-03-31T06:28:03.229Z,12.50
2019-03-31T06:30:36.963Z,11.75
2019-03-31T06:33:10.692Z,13.00
2019-03-31T06:35:44.414Z,14.75
2019-03-31T06:38:18.139Z,12.00
2019-03-31T06:40:51.838Z,11.25
2019-03-31T06:43:25.574Z,12.00
2019-03-31T06:45:59.793Z,9.00
2019-03-31T06:48:33.504Z,10.50
2019-03-31T06:51:07.216Z,10.80
2019-03-31T06:53:40.934Z,11.00
2019-03-31T06:56:14.645Z,11.00
2019-03-31T06:58:48.422Z,9.80
2019-03-31T07:01:22.135Z,9.00
2019-03-31T07:03:55.834Z,8.00
2019-03-31T07:06:29.572Z,8.60
2019-03-31T07:09:04.401Z,7.00
2019-03-31T07:11:38.110Z,6.75
2019-03-31T07:14:12.770Z,6.60
2019-03-31T07:16:46.536Z,6.00
2019-03-31T07:19:20.224Z,5.00
2019-03-31T07:21:53.936Z,3.00
2019-03-31T07:24:27.664Z,3.00
2019-03-31T07:27:01.406Z,2.00
2019-03-31T07:29:35.100Z,3.00
2019-03-31T07:32:08.790Z,2.25
2019-03-31T07:34:42.494Z,1.20
2019-03-31T07:37:16.192Z,2.00
2019-03-31T07:39:50.002Z,2.00
2019-03-31T07:42:24.147Z,2.00
2019-03-31T07:44:57.843Z,2.00
2019-03-31T07:47:31.537Z,2.00
2019-03-31T07:50:10.589Z,2.00
2019-03-31T07:52:44.353Z,2.00
2019-03-31T07:55:18.087Z,1.75
2019-03-31T07:57:54.626Z,2.00
2019-03-31T08:00:27.438Z,1.00
2019-03-31T08:03:01.159Z,0.75
2019-03-31T08:05:37.562Z,1.00
2019-03-31T08:08:10.245Z,2.00
2019-03-31T08:10:43.949Z,1.00
2019-03-31T08:13:17.670Z,1.00
2019-03-31T08:15:51.367Z,1.00
2019-03-31T08:18:25.069Z,1.00
2019-03-31T08:20:58.788Z,1.00
2019-03-31T08:23:32.483Z,1.00
2019-03-31T08:26:06.175Z,1.00
2019-03-31T08:28:39.884Z,1.00
2019-03-31T08:31:13.591Z,1.00
2019-03-31T08:33:47.293Z,0.25
2019-03-31T08:36:20.989Z,0.00
2019-03-31T08:38:54.695Z,1.00
2019-03-31T08:41:28.410Z,0.00
2019-03-31T08:44:02.105Z,0.75
2019-03-31T08:46:35.810Z,0.40
2019-03-31T08:49:09.482Z,1.00
2019-03-31T08:51:43.184Z,0.50
2019-03-31T08:54:16.972Z,0.25
2019-03-31T08:56:50.728Z,1.00
2019-03-31T08:59:24.421Z,1.00
2019-03-31T09:01:58.137Z,1.00
2019-03-31T09:04:31.854Z,1.00
2019-03-31T09:07:05.557Z,1.00
2019-03-31T09:09:39.268Z,2.25
2019-03-31T09:12:12.974Z,2.00
2019-03-31T09:14:46.690Z,1.50
2019-03-31T09:17:20.428Z,2.00
2019-03-31T09:19:54.182Z,2.00
2019-03-31T09:22:27.907Z,2.00
2019-03-31T09:25:01.666Z,3.00
2019-03-31T09:27:35.394Z,3.00
2019-03-31T09:30:10.313Z,2.50
2019-03-31T09:32:44.014Z,3.00
2019-03-31T09:35:17.778Z,2.00
2019-03-31T09:37:51.506Z,1.00
2019-03-31T09:40:25.288Z,1.00
2019-03-31T09:42:59.067Z,0.60
2019-03-31T09:45:32.794Z,1.75
2019-03-31T09:48:06.531Z,1.25
2019-03-31T09:50:40.247Z,0.00
2019-03-31T09:53:13.979Z,1.00
2019-03-31T09:55:47.761Z,1.00
2019-03-31T09:58:21.481Z,0.75
2019-03-31T10:00:55.253Z,2.00
2019-03-31T10:03:28.965Z,3.00
2019-03-31T10:06:10.512Z,1.00
2019-03-31T10:08:38.108Z,1.40
2019-03-31T10:11:12.343Z,1.00
2019-03-31T10:13:46.045Z,1.00
2019-03-31T10:16:19.737Z,1.00
2019-03-31T10:18:53.449Z,7.25
2019-03-31T10:21:27.179Z,1.80
2019-03-31T10:24:00.900Z,1.00
2019-03-31T10:26:34.581Z,1.00
2019-03-31T10:29:08.300Z,0.80
2019-03-31T10:31:42.019Z,1.00
2019-03-31T10:34:15.735Z,1.50
2019-03-31T10:36:49.831Z,1.00
2019-03-31T10:39:23.535Z,1.00
2019-03-31T10:41:57.270Z,1.00
2019-03-31T10:44:31.279Z,1.25
2019-03-31T10:47:04.996Z,2.25
2019-03-31T10:49:38.687Z,1.00
2019-03-31T10:52:12.541Z,1.25
2019-03-31T10:54:46.238Z,1.80
2019-03-31T10:57:20.000Z,1.00
2019-03-31T10:59:54.014Z,1.00
2019-03-31T11:02:27.725Z,2.00
2019-03-31T11:05:01.464Z,1.40
2019-03-31T11:07:35.160Z,1.00
2019-03-31T11:10:08.862Z,1.00
2019-03-31T11:12:42.813Z,1.75
2019-03-31T11:15:16.518Z,2.00
2019-03-31T11:17:50.222Z,0.00
2019-03-31T11:20:23.936Z,1.00
2019-03-31T11:22:57.665Z,0.40
2019-03-31T11:25:31.376Z,0.00
2019-03-31T11:28:05.056Z,1.00
2019-03-31T11:30:38.762Z,1.00
2019-03-31T11:33:12.736Z,0.40
2019-03-31T11:35:46.488Z,0.00
2019-03-31T11:38:20.198Z,0.00
2019-03-31T11:40:53.903Z,0.00
2019-03-31T11:43:27.614Z,0.60
2019-03-31T11:46:01.698Z,0.25
2019-03-31T11:48:35.400Z,0.00
2019-03-31T11:51:09.290Z,0.00
2019-03-31T11:53:42.984Z,0.00
2019-03-31T11:56:16.689Z,1.00
2019-03-31T11:58:50.384Z,0.00
2019-03-31T12:01:24.305Z,0.00
2019-03-31T12:03:58.353Z,1.00
2019-03-31T12:06:32.073Z,0.00
2019-03-31T12:09:06.404Z,0.00
2019-03-31T12:11:40.107Z,0.00
2019-03-31T12:14:13.822Z,0.60
2019-03-31T12:16:47.543Z,0.00
2019-03-31T12:19:21.243Z,1.00
2019-03-31T12:21:54.979Z,0.25
2019-03-31T12:24:28.698Z,0.00
2019-03-31T12:27:02.387Z,1.25
2019-03-31T12:29:36.125Z,0.00
2019-03-31T12:32:09.904Z,1.00
2019-03-31T12:34:43.617Z,1.00
2019-03-31T12:37:17.335Z,0.00
2019-03-31T12:39:51.054Z,1.00
2019-03-31T12:42:24.748Z,1.00
2019-03-31T12:44:58.469Z,0.00
2019-03-31T12:47:32.293Z,1.00
2019-03-31T12:50:06.169Z,0.00
2019-03-31T12:52:46.634Z,1.60
2019-03-31T12:55:15.319Z,0.50
2019-03-31T12:57:51.720Z,0.00
2019-03-31T13:00:24.443Z,1.00
2019-03-31T13:02:58.163Z,0.75
2019-03-31T13:05:31.879Z,0.00
2019-03-31T13:08:05.615Z,0.25
2019-03-31T13:10:39.338Z,0.00
2019-03-31T13:13:13.239Z,0.50
2019-03-31T13:15:46.971Z,0.00
2019-03-31T13:18:20.676Z,0.50
2019-03-31T13:20:54.362Z,0.75
2019-03-31T13:23:28.057Z,0.20
2019-03-31T13:26:01.768Z,0.00
2019-03-31T13:28:35.459Z,0.25
2019-03-31T13:31:09.182Z,0.00
2019-03-31T13:33:42.914Z,0.00
2019-03-31T13:36:16.628Z,0.00
2019-03-31T13:38:50.418Z,0.00
2019-03-31T13:41:24.128Z,0.80
2019-03-31T13:43:57.831Z,0.00
2019-03-31T13:46:31.548Z,0.00
2019-03-31T13:49:05.254Z,0.00
2019-03-31T13:51:38.972Z,0.00
2019-03-31T13:54:12.694Z,0.50
2019-03-31T13:56:48.923Z,0.00
2019-03-31T13:59:21.809Z,1.00
2019-03-31T14:01:55.829Z,1.00
2019-03-31T14:04:29.517Z,0.00
2019-03-31T14:07:04.530Z,0.00
2019-03-31T14:09:38.434Z,0.00
2019-03-31T14:12:12.517Z,0.00
2019-03-31T14:14:46.235Z,0.00
2019-03-31T14:17:19.928Z,0.00
2019-03-31T14:19:53.632Z,0.25
2019-03-31T14:22:27.357Z,0.00
2019-03-31T14:25:01.066Z,0.00
2019-03-31T14:27:34.756Z,0.00
2019-03-31T14:30:08.820Z,1.00
2019-03-31T14:32:42.567Z,0.00
2019-03-31T14:35:16.274Z,1.00
2019-03-31T14:37:50.004Z,1.00
2019-03-31T14:40:23.712Z,1.00
2019-03-31T14:42:57.408Z,0.00
2019-03-31T14:45:32.561Z,1.00
2019-03-31T14:48:06.282Z,2.00
2019-03-31T14:50:40.371Z,0.75
2019-03-31T14:53:14.070Z,0.50
2019-03-31T14:55:47.779Z,2.00
2019-03-31T14:58:21.478Z,1.50
2019-03-31T15:00:55.239Z,1.00
2019-03-31T15:03:28.958Z,1.75
2019-03-31T15:06:02.650Z,1.00
2019-03-31T15:08:36.363Z,1.00
2019-03-31T15:11:10.158Z,0.50
2019-03-31T15:13:44.216Z,1.00
2019-03-31T15:16:17.929Z,1.00
2019-03-31T15:18:51.645Z,1.00
2019-03-31T15:21:25.350Z,1.00
2019-03-31T15:23:59.046Z,2.00
2019-03-31T15:26:32.754Z,1.00
2019-03-31T15:29:06.485Z,2.00
2019-03-31T15:31:40.183Z,2.00
2019-03-31T15:34:13.873Z,1.00
2019-03-31T15:36:47.592Z,1.00
2019-03-31T15:39:21.279Z,1.00
2019-03-31T15:41:55.007Z,1.00
2019-03-31T15:44:28.694Z,0.00
2019-03-31T15:47:02.401Z,0.75
2019-03-31T15:49:36.079Z,0.00
2019-03-31T15:52:09.817Z,1.00
2019-03-31T15:54:43.543Z,0.60
2019-03-31T15:57:17.332Z,1.00
2019-03-31T15:59:51.767Z,0.00
2019-03-31T16:02:25.461Z,-0.25
2019-03-31T16:04:59.189Z,0.75
2019-03-31T16:07:32.947Z,0.00
2019-03-31T16:10:06.660Z,0.75
2019-03-31T16:12:40.361Z,0.00
2019-03-31T16:15:14.491Z,1.00
2019-03-31T16:17:48.210Z,0.00
2019-03-31T16:20:21.924Z,1.75
2019-03-31T16:22:55.698Z,0.50
2019-03-31T16:25:29.399Z,0.50
2019-03-31T16:28:03.116Z,0.50
2019-03-31T16:30:36.868Z,0.80
2019-03-31T16:33:10.574Z,0.00
2019-03-31T16:35:44.277Z,0.00
2019-03-31T16:38:18.272Z,0.00
2019-03-31T16:40:52.056Z,0.00
2019-03-31T16:43:25.780Z,0.25
2019-03-31T16:45:59.503Z,0.00
2019-03-31T16:48:33.209Z,0.00
2019-03-31T16:51:07.247Z,0.00
2019-03-31T16:53:40.963Z,0.75
2019-03-31T16:56:18.920Z,1.00
2019-03-31T16:58:52.656Z,0.00
2019-03-31T17:01:26.364Z,0.00
2019-03-31T17:04:00.142Z,1.75
2019-03-31T17:06:36.116Z,2.00
2019-03-31T17:09:09.830Z,2.00
2019-03-31T17:11:43.542Z,0.00
2019-03-31T17:14:17.262Z,4.00
2019-03-31T17:16:51.062Z,12.25
2019-03-31T17:19:24.842Z,1.00
2019-03-31T17:21:59.921Z,1.00
2019-03-31T17:24:34.136Z,0.00
2019-03-31T17:27:07.852Z,1.00
2019-03-31T17:29:41.656Z,2.00
2019-03-31T17:32:15.362Z,0.75
2019-03-31T17:34:49.109Z,0.20
2019-03-31T17:37:22.886Z,1.00
2019-03-31T17:40:06.129Z,0.00
2019-03-31T17:42:32.010Z,0.00
2019-03-31T17:45:06.188Z,2.00
2019-03-31T17:47:39.897Z,0.00
2019-03-31T17:50:13.619Z,0.00
2019-03-31T17:52:47.341Z,0.00
2019-03-31T17:55:21.264Z,0.00
2019-03-31T17:57:55.233Z,0.75
2019-03-31T18:00:30.683Z,0.00
2019-03-31T18:03:06.239Z,1.00
2019-03-31T18:05:39.969Z,0.00
2019-03-31T18:08:16.974Z,1.00
2019-03-31T18:10:50.799Z,1.00
2019-03-31T18:13:24.624Z,1.00
2019-03-31T18:15:58.492Z,1.20
2019-03-31T18:18:32.444Z,0.00
2019-03-31T18:21:06.259Z,1.00
2019-03-31T18:23:39.973Z,1.00
2019-03-31T18:26:13.679Z,0.25
2019-03-31T18:28:47.401Z,0.60
2019-03-31T18:31:21.176Z,0.00
2019-03-31T18:33:54.884Z,1.00
2019-03-31T18:36:36.465Z,0.00
2019-03-31T18:39:05.931Z,0.25
2019-03-31T18:41:39.643Z,0.25
2019-03-31T18:44:13.353Z,0.80
2019-03-31T18:46:47.063Z,0.00
2019-03-31T18:49:20.753Z,0.00
2019-03-31T18:51:54.499Z,0.40
2019-03-31T18:54:28.195Z,0.00
2019-03-31T18:57:01.993Z,0.00
2019-03-31T18:59:35.733Z,0.75
2019-03-31T19:02:09.501Z,0.00
2019-03-31T19:04:43.235Z,0.00
2019-03-31T19:07:17.225Z,0.00
2019-03-31T19:09:50.968Z,0.50
2019-03-31T19:12:24.690Z,0.00
2019-03-31T19:14:58.384Z,0.00
2019-03-31T19:17:32.134Z,0.25
2019-03-31T19:20:05.839Z,1.00
2019-03-31T19:22:39.543Z,0.00
2019-03-31T19:25:13.255Z,0.00
2019-03-31T19:27:46.991Z,0.00
2019-03-31T19:30:20.679Z,0.80
2019-03-31T19:32:54.392Z,1.00
2019-03-31T19:35:28.100Z,0.75
2019-03-31T19:38:01.828Z,1.00
2019-03-31T19:40:35.549Z,0.80
2019-03-31T19:43:09.250Z,1.00
2019-03-31T19:45:43.038Z,0.00
2019-03-31T19:48:16.734Z,0.00
2019-03-31T19:50:50.440Z,0.00
2019-03-31T19:53:24.147Z,0.00
2019-03-31T19:56:07.440Z,0.00
2019-03-31T19:58:33.356Z,0.00
2019-03-31T20:01:07.069Z,1.00
2019-03-31T20:03:40.925Z,0.00
2019-03-31T20:06:14.636Z,0.75
2019-03-31T20:08:48.341Z,0.00
2019-03-31T20:11:22.087Z,0.00
2019-03-31T20:13:55.841Z,0.00
2019-03-31T20:16:29.552Z,0.00
2019-03-31T20:19:03.887Z,0.00
2019-03-31T20:21:38.870Z,0.00
2019-03-31T20:24:12.690Z,0.00
2019-03-31T20:26:46.396Z,0.00
2019-03-31T20:29:20.135Z,0.00
2019-03-31T20:31:54.361Z,0.00
2019-03-31T20:34:28.415Z,0.25
2019-03-31T20:37:02.171Z,0.00
2019-03-31T20:39:35.900Z,0.00
2019-03-31T20:42:09.619Z,0.00
2019-03-31T20:44:43.315Z,0.75
2019-03-31T20:47:17.026Z,0.00
2019-03-31T20:49:50.809Z,0.00
2019-03-31T20:52:26.133Z,0.00
2019-03-31T20:54:59.869Z,1.00
2019-03-31T20:57:33.860Z,1.00
2019-03-31T21:00:09.557Z,1.00
2019-03-31T21:02:43.365Z,1.00
2019-03-31T21:05:17.137Z,0.00
2019-03-31T21:07:51.749Z,0.00
2019-03-31T21:10:25.575Z,0.00
2019-03-31T21:12:59.317Z,0.00
2019-03-31T21:15:33.009Z,0.00
2019-03-31T21:18:06.660Z,0.00
2019-03-31T21:20:40.391Z,0.00
2019-03-31T21:23:14.101Z,0.00
2019-03-31T21:25:47.811Z,0.50
2019-03-31T21:28:21.499Z,0.00
2019-03-31T21:30:55.303Z,0.00
2019-03-31T21:33:29.037Z,0.00
2019-03-31T21:36:02.819Z,0.00
2019-03-31T21:38:36.515Z,0.00
2019-03-31T21:41:13.928Z,1.00
2019-03-31T21:43:46.007Z,0.80
2019-03-31T21:46:19.690Z,0.00
2019-03-31T21:48:53.423Z,0.00
2019-03-31T21:51:27.134Z,0.00
2019-03-31T21:54:01.008Z,0.00
2019-03-31T21:56:34.702Z,0.00
2019-03-31T21:59:08.412Z,0.25
2019-03-31T22:01:42.172Z,0.50
2019-03-31T22:04:17.632Z,0.75
2019-03-31T22:06:51.354Z,0.00
2019-03-31T22:09:25.273Z,0.50
2019-03-31T22:11:59.021Z,1.00
2019-03-31T22:14:32.703Z,0.00
2019-03-31T22:17:06.422Z,1.00
2019-03-31T22:19:40.129Z,1.00
2019-03-31T22:22:13.904Z,1.00
2019-03-31T22:24:47.689Z,1.00
2019-03-31T22:27:21.398Z,0.20
2019-03-31T22:29:58.221Z,0.75
2019-03-31T22:32:31.912Z,1.00
2019-03-31T22:35:07.414Z,1.00
2019-03-31T22:37:41.133Z,1.00
2019-03-31T22:40:14.832Z,0.00
2019-03-31T22:42:48.546Z,1.00
2019-03-31T22:45:23.901Z,1.00
2019-03-31T22:47:57.660Z,1.00
2019-03-31T22:50:31.455Z,0.75
2019-03-31T22:53:05.166Z,0.75
2019-03-31T22:55:40.150Z,0.75
2019-03-31T22:58:13.900Z,1.00
2019-03-31T23:00:47.590Z,1.00
2019-03-31T23:03:23.050Z,1.25
2019-03-31T23:05:58.844Z,2.00
2019-03-31T23:08:32.678Z,1.00
2019-03-31T23:11:06.481Z,1.00
2019-03-31T23:13:40.185Z,1.25
2019-03-31T23:16:14.161Z,0.50
2019-03-31T23:18:47.869Z,1.00
2019-03-31T23:21:21.631Z,0.60
2019-03-31T23:23:55.379Z,0.00
2019-03-31T23:26:32.075Z,1.00
2019-03-31T23:29:06.749Z,1.00
2019-03-31T23:31:40.522Z,0.50
2019-03-31T23:34:14.223Z,1.00
2019-03-31T23:36:48.173Z,0.00
2019-03-31T23:39:21.883Z,0.00
2019-03-31T23:41:55.599Z,0.00
2019-03-31T23:44:29.308Z,0.00
2019-03-31T23:47:03.081Z,1.00
2019-03-31T23:49:36.777Z,0.00
2019-03-31T23:52:10.577Z,1.00
2019-03-31T23:54:44.274Z,0.00
2019-03-31T23:57:20.733Z,0.25
2019-03-31T23:59:54.425Z,1.00
